createdAt,value
2019-01-21T00:00:13.645Z,1023.63
2019-01-21T00:01:23.064Z,1023.66
2019-01-21T00:02:32.492Z,1023.62
2019-01-21T00:03:42.166Z,1023.65
2019-01-21T00:04:51.842Z,1023.67
2019-01-21T00:06:01.508Z,1023.69
2019-01-21T00:07:10.933Z,1023.66
2019-01-21T00:08:20.610Z,1023.66
2019-01-21T00:09:30.283Z,1023.67
2019-01-21T00:10:40.199Z,1023.62
2019-01-21T00:11:49.866Z,1023.65
2019-01-21T00:12:59.287Z,1023.62
2019-01-21T00:14:08.457Z,1023.64
2019-01-21T00:15:17.879Z,1023.64
2019-01-21T00:16:27.788Z,1023.62
2019-01-21T00:17:37.454Z,1023.63
2019-01-21T00:18:47.130Z,1023.58
2019-01-21T00:19:56.298Z,1023.61
2019-01-21T00:21:05.983Z,1023.61
2019-01-21T00:22:15.900Z,1023.62
2019-01-21T00:23:25.326Z,1023.59
2019-01-21T00:24:34.995Z,1023.62
2019-01-21T00:25:44.911Z,1023.63
2019-01-21T00:26:54.579Z,1023.61
2019-01-21T00:28:04.254Z,1023.62
2019-01-21T00:29:14.177Z,1023.6
2019-01-21T00:30:23.852Z,1023.62
2019-01-21T00:31:33.770Z,1023.62
2019-01-21T00:32:43.198Z,1023.67
2019-01-21T00:33:52.619Z,1023.65
2019-01-21T00:35:02.538Z,1023.59
2019-01-21T00:36:11.966Z,1023.59
2019-01-21T00:37:21.887Z,1023.55
2019-01-21T00:38:31.066Z,1023.55
2019-01-21T00:39:40.495Z,1023.53
2019-01-21T00:40:50.176Z,1023.54
2019-01-21T00:42:00.091Z,1023.55
2019-01-21T00:43:10.010Z,1023.53
2019-01-21T00:44:19.683Z,1023.53
2019-01-21T00:45:29.341Z,1023.53
2019-01-21T00:46:38.512Z,1023.52
2019-01-21T00:47:48.179Z,1023.5
2019-01-21T00:48:57.851Z,1023.53
2019-01-21T00:50:07.268Z,1023.52
2019-01-21T00:51:17.198Z,1023.51
2019-01-21T00:52:26.936Z,1023.48
2019-01-21T00:53:36.603Z,1023.5
2019-01-21T00:54:46.017Z,1023.53
2019-01-21T00:55:55.865Z,1023.52
2019-01-21T00:57:05.788Z,1023.49
2019-01-21T00:58:15.208Z,1023.53
2019-01-21T00:59:24.640Z,1023.54
2019-01-21T01:00:34.554Z,1023.57
2019-01-21T01:01:43.979Z,1023.59
2019-01-21T01:02:53.665Z,1023.55
2019-01-21T01:04:03.341Z,1023.5
2019-01-21T01:05:13.013Z,1023.52
2019-01-21T01:06:22.434Z,1023.53
2019-01-21T01:07:32.345Z,1023.51
2019-01-21T01:08:42.269Z,1023.54
2019-01-21T01:09:52.182Z,1023.58
2019-01-21T01:11:02.100Z,1023.63
2019-01-21T01:12:11.768Z,1023.6
2019-01-21T01:13:20.998Z,1023.63
2019-01-21T01:14:30.418Z,1023.64
2019-01-21T01:15:40.082Z,1023.62
2019-01-21T01:16:49.998Z,1023.61
2019-01-21T01:17:59.417Z,1023.57
2019-01-21T01:19:09.084Z,1023.58
2019-01-21T01:20:18.999Z,1023.61
2019-01-21T01:21:28.967Z,1023.62
2019-01-21T01:22:38.875Z,1023.61
2019-01-21T01:23:48.048Z,1023.59
2019-01-21T01:24:57.968Z,1023.64
2019-01-21T01:26:07.678Z,1023.58
2019-01-21T01:27:17.343Z,1023.6
2019-01-21T01:28:26.764Z,1023.6
2019-01-21T01:29:36.180Z,1023.61
2019-01-21T01:30:45.592Z,1023.59
2019-01-21T01:31:55.265Z,1023.56
2019-01-21T01:33:04.933Z,1023.59
2019-01-21T01:34:14.847Z,1023.59
2019-01-21T01:35:24.259Z,1023.57
2019-01-21T01:36:33.447Z,1023.55
2019-01-21T01:37:43.129Z,1023.58
2019-01-21T01:38:52.796Z,1023.61
2019-01-21T01:40:02.219Z,1023.64
2019-01-21T01:41:11.638Z,1023.62
2019-01-21T01:42:21.335Z,1023.69
2019-01-21T01:43:31.032Z,1023.6
2019-01-21T01:44:40.466Z,1023.64
2019-01-21T01:45:50.212Z,1023.57
2019-01-21T01:46:59.937Z,1023.57
2019-01-21T01:48:09.880Z,1023.56
2019-01-21T01:49:19.561Z,1023.58
2019-01-21T01:50:29.518Z,1023.54
2019-01-21T01:51:38.954Z,1023.53
2019-01-21T01:52:48.397Z,1023.49
2019-01-21T01:53:58.100Z,1023.45
2019-01-21T01:55:07.554Z,1023.5
2019-01-21T01:56:16.488Z,1023.53
2019-01-21T01:57:26.184Z,1023.49
2019-01-21T01:58:36.145Z,1023.5
2019-01-21T01:59:45.821Z,1023.5
2019-01-21T02:00:55.530Z,1023.47
2019-01-21T02:02:05.245Z,1023.42
2019-01-21T02:03:14.678Z,1023.45
2019-01-21T02:04:24.125Z,1023.38
2019-01-21T02:05:33.817Z,1023.39
2019-01-21T02:06:43.827Z,1023.37
2019-01-21T02:07:54.352Z,1023.35
2019-01-21T02:09:04.929Z,1023.36
2019-01-21T02:10:14.839Z,1023.34
2019-01-21T02:11:25.090Z,1023.35
2019-01-21T02:12:35.105Z,1023.34
2019-01-21T02:13:45.365Z,1023.34
2019-01-21T02:14:55.361Z,1023.35
2019-01-21T02:16:04.320Z,1023.3
2019-01-21T02:17:14.008Z,1023.33
2019-01-21T02:18:23.698Z,1023.29
2019-01-21T02:19:32.901Z,1023.35
2019-01-21T02:20:42.591Z,1023.29
2019-01-21T02:21:52.530Z,1023.33
2019-01-21T02:23:02.220Z,1023.3
2019-01-21T02:24:11.921Z,1023.34
2019-01-21T02:25:21.363Z,1023.34
2019-01-21T02:26:31.317Z,1023.31
2019-01-21T02:27:41.009Z,1023.33
2019-01-21T02:28:50.703Z,1023.28
2019-01-21T02:30:00.227Z,1023.31
2019-01-21T02:31:09.703Z,1023.29
2019-01-21T02:32:19.436Z,1023.23
2019-01-21T02:33:28.886Z,1023.26
2019-01-21T02:34:38.074Z,1023.28
2019-01-21T02:35:48.027Z,1023.23
2019-01-21T02:36:57.723Z,1023.24
2019-01-21T02:38:07.674Z,1023.24
2019-01-21T02:39:17.115Z,1023.25
2019-01-21T02:40:27.071Z,1023.27
2019-01-21T02:41:37.030Z,1023.25
2019-01-21T02:42:46.227Z,1023.24
2019-01-21T02:43:55.916Z,1023.27
2019-01-21T02:45:05.363Z,1023.24
2019-01-21T02:46:15.345Z,1023.26
2019-01-21T02:47:24.790Z,1023.29
2019-01-21T02:48:34.508Z,1023.29
2019-01-21T02:49:43.965Z,1023.31
2019-01-21T02:50:53.713Z,1023.3
2019-01-21T02:52:03.637Z,1023.26
2019-01-21T02:53:14.007Z,1023.27
2019-01-21T02:54:24.372Z,1023.19
2019-01-21T02:55:34.933Z,1023.19
2019-01-21T02:56:45.178Z,1023.15
2019-01-21T02:57:54.860Z,1023.18
2019-01-21T02:59:04.554Z,1023.14
2019-01-21T03:00:14.246Z,1023.13
2019-01-21T03:01:23.687Z,1023.19
2019-01-21T03:02:33.383Z,1023.13
2019-01-21T03:03:43.086Z,1023.1
2019-01-21T03:04:53.031Z,1023.13
2019-01-21T03:06:03.149Z,1023.1
2019-01-21T03:07:12.344Z,1023.07
2019-01-21T03:08:22.307Z,1023.06
2019-01-21T03:09:32.026Z,1023.02
2019-01-21T03:10:41.960Z,1023.09
2019-01-21T03:11:51.908Z,1023.11
2019-01-21T03:13:01.602Z,1023.08
2019-01-21T03:14:11.071Z,1023.09
2019-01-21T03:15:20.521Z,1023.06
2019-01-21T03:16:29.965Z,1023.07
2019-01-21T03:17:39.429Z,1023.08
2019-01-21T03:18:49.119Z,1023.1
2019-01-21T03:19:58.298Z,1023.07
2019-01-21T03:21:08.017Z,1023.06
2019-01-21T03:22:17.722Z,1023.02
2019-01-21T03:23:26.921Z,1023.03
2019-01-21T03:24:36.412Z,1023.01
2019-01-21T03:25:45.871Z,1023.01
2019-01-21T03:26:55.832Z,1022.99
2019-01-21T03:28:05.304Z,1022.95
2019-01-21T03:29:15.004Z,1022.95
2019-01-21T03:30:24.743Z,1022.94
2019-01-21T03:31:34.463Z,1022.92
2019-01-21T03:32:44.577Z,1022.91
2019-01-21T03:33:54.566Z,1022.95
2019-01-21T03:35:04.881Z,1022.98
2019-01-21T03:36:15.412Z,1023.03
2019-01-21T03:37:26.075Z,1023.01
2019-01-21T03:38:36.101Z,1023.02
2019-01-21T03:39:46.543Z,1023.02
2019-01-21T03:40:56.735Z,1023.08
2019-01-21T03:42:06.620Z,1023.05
2019-01-21T03:43:16.321Z,1023.1
2019-01-21T03:44:26.016Z,1023.03
2019-01-21T03:45:35.708Z,1023.04
2019-01-21T03:46:45.668Z,1022.98
2019-01-21T03:47:55.429Z,1023
2019-01-21T03:49:05.394Z,1022.99
2019-01-21T03:50:15.370Z,1022.95
2019-01-21T03:51:25.077Z,1022.94
2019-01-21T03:52:34.774Z,1022.9
2019-01-21T03:53:43.977Z,1022.92
2019-01-21T03:54:53.439Z,1022.9
2019-01-21T03:56:02.637Z,1022.97
2019-01-21T03:57:12.342Z,1022.97
2019-01-21T03:58:22.039Z,1022.99
2019-01-21T03:59:31.993Z,1023
2019-01-21T04:00:41.952Z,1023.01
2019-01-21T04:01:51.641Z,1022.99
2019-01-21T04:03:01.337Z,1023
2019-01-21T04:04:11.034Z,1023.01
2019-01-21T04:05:20.753Z,1023.03
2019-01-21T04:06:30.444Z,1023.05
2019-01-21T04:07:39.898Z,1023.09
2019-01-21T04:08:49.583Z,1023.1
2019-01-21T04:09:59.290Z,1023.11
2019-01-21T04:11:09.025Z,1023.12
2019-01-21T04:12:18.717Z,1023.06
2019-01-21T04:13:28.674Z,1022.99
2019-01-21T04:14:38.123Z,1023
2019-01-21T04:15:48.067Z,1022.97
2019-01-21T04:16:58.011Z,1022.95
2019-01-21T04:18:07.963Z,1022.95
2019-01-21T04:19:24.864Z,1022.91
2019-01-21T04:20:35.218Z,1022.9
2019-01-21T04:21:45.703Z,1022.87
2019-01-21T04:22:55.825Z,1022.83
2019-01-21T04:24:05.530Z,1022.84
2019-01-21T04:25:15.477Z,1022.85
2019-01-21T04:26:25.441Z,1022.84
2019-01-21T04:27:34.900Z,1022.79
2019-01-21T04:28:44.851Z,1022.8
2019-01-21T04:29:54.558Z,1022.78
2019-01-21T04:31:04.522Z,1022.8
2019-01-21T04:32:14.212Z,1022.81
2019-01-21T04:33:24.170Z,1022.82
2019-01-21T04:34:33.886Z,1022.75
2019-01-21T04:35:43.901Z,1022.78
2019-01-21T04:36:53.619Z,1022.79
2019-01-21T04:38:03.315Z,1022.79
2019-01-21T04:39:13.027Z,1022.79
2019-01-21T04:40:22.722Z,1022.71
2019-01-21T04:41:32.427Z,1022.72
2019-01-21T04:42:42.387Z,1022.68
2019-01-21T04:43:52.354Z,1022.69
2019-01-21T04:45:02.082Z,1022.72
2019-01-21T04:46:11.798Z,1022.77
2019-01-21T04:47:22.100Z,1022.77
2019-01-21T04:48:33.066Z,1022.76
2019-01-21T04:49:42.730Z,1022.77
2019-01-21T04:50:52.430Z,1022.83
2019-01-21T04:52:02.381Z,1022.87
2019-01-21T04:53:12.335Z,1022.85
2019-01-21T04:54:22.037Z,1022.84
2019-01-21T04:55:31.493Z,1022.88
2019-01-21T04:56:41.202Z,1022.87
2019-01-21T04:57:51.484Z,1022.86
2019-01-21T04:59:01.566Z,1022.83
2019-01-21T05:00:12.077Z,1022.9
2019-01-21T05:01:22.558Z,1022.86
2019-01-21T05:02:32.836Z,1022.86
2019-01-21T05:03:42.966Z,1022.83
2019-01-21T05:04:54.982Z,1022.82
2019-01-21T05:06:04.942Z,1022.79
2019-01-21T05:07:14.439Z,1022.82
2019-01-21T05:08:24.379Z,1022.82
2019-01-21T05:09:34.387Z,1022.79
2019-01-21T05:10:43.833Z,1022.76
2019-01-21T05:11:53.833Z,1022.72
2019-01-21T05:13:03.537Z,1022.71
2019-01-21T05:14:13.498Z,1022.7
2019-01-21T05:15:23.049Z,1022.69
2019-01-21T05:16:32.745Z,1022.68
2019-01-21T05:17:42.685Z,1022.64
2019-01-21T05:18:52.145Z,1022.61
2019-01-21T05:20:01.598Z,1022.56
2019-01-21T05:21:12.312Z,1022.52
2019-01-21T05:22:22.039Z,1022.54
2019-01-21T05:23:31.500Z,1022.52
2019-01-21T05:24:41.198Z,1022.5
2019-01-21T05:25:50.910Z,1022.49
2019-01-21T05:27:00.141Z,1022.51
2019-01-21T05:28:10.094Z,1022.5
2019-01-21T05:29:19.811Z,1022.46
2019-01-21T05:30:29.639Z,1022.46
2019-01-21T05:31:38.964Z,1022.36
2019-01-21T05:32:48.916Z,1022.31
2019-01-21T05:33:58.869Z,1022.26
2019-01-21T05:35:08.559Z,1022.27
2019-01-21T05:36:18.273Z,1022.32
2019-01-21T05:37:28.386Z,1022.31
2019-01-21T05:38:38.092Z,1022.27
2019-01-21T05:39:48.019Z,1022.31
2019-01-21T05:40:57.700Z,1022.3
2019-01-21T05:42:07.375Z,1022.39
2019-01-21T05:43:17.047Z,1022.34
2019-01-21T05:44:26.966Z,1022.33
2019-01-21T05:45:36.884Z,1022.3
2019-01-21T05:46:46.557Z,1022.27
2019-01-21T05:47:56.237Z,1022.29
2019-01-21T05:49:05.918Z,1022.34
2019-01-21T05:50:15.849Z,1022.43
2019-01-21T05:51:25.526Z,1022.48
2019-01-21T05:52:34.947Z,1022.51
2019-01-21T05:53:44.872Z,1022.52
2019-01-21T05:54:54.796Z,1022.55
2019-01-21T05:56:04.541Z,1022.54
2019-01-21T05:57:14.213Z,1022.49
2019-01-21T05:58:23.882Z,1022.46
2019-01-21T05:59:33.548Z,1022.48
2019-01-21T06:00:42.722Z,1022.47
2019-01-21T06:01:52.388Z,1022.44
2019-01-21T06:03:02.353Z,1022.49
2019-01-21T06:04:12.020Z,1022.48
2019-01-21T06:05:21.942Z,1022.47
2019-01-21T06:06:31.354Z,1022.47
2019-01-21T06:07:40.770Z,1022.51
2019-01-21T06:08:50.205Z,1022.54
2019-01-21T06:09:59.874Z,1022.54
2019-01-21T06:11:09.550Z,1022.5
2019-01-21T06:12:19.240Z,1022.51
2019-01-21T06:13:28.903Z,1022.49
2019-01-21T06:14:38.571Z,1022.48
2019-01-21T06:15:47.983Z,1022.49
2019-01-21T06:16:57.672Z,1022.5
2019-01-21T06:18:06.839Z,1022.58
2019-01-21T06:19:16.762Z,1022.64
2019-01-21T06:20:26.686Z,1022.66
2019-01-21T06:21:36.369Z,1022.63
2019-01-21T06:22:46.067Z,1022.7
2019-01-21T06:23:55.752Z,1022.73
2019-01-21T06:25:05.424Z,1022.77
2019-01-21T06:26:15.111Z,1022.82
2019-01-21T06:27:24.528Z,1022.73
2019-01-21T06:28:34.462Z,1022.72
2019-01-21T06:29:43.875Z,1022.67
2019-01-21T06:30:53.536Z,1022.64
2019-01-21T06:32:03.461Z,1022.68
2019-01-21T06:33:13.135Z,1022.69
2019-01-21T06:34:23.055Z,1022.7
2019-01-21T06:35:32.791Z,1022.79
2019-01-21T06:36:42.257Z,1022.78
2019-01-21T06:37:51.922Z,1022.83
2019-01-21T06:39:01.093Z,1022.84
2019-01-21T06:40:11.019Z,1022.87
2019-01-21T06:41:20.439Z,1022.85
2019-01-21T06:42:30.364Z,1022.82
2019-01-21T06:43:40.281Z,1022.87
2019-01-21T06:44:50.192Z,1022.82
2019-01-21T06:46:00.113Z,1022.87
2019-01-21T06:47:09.035Z,1022.85
2019-01-21T06:48:18.962Z,1022.88
2019-01-21T06:49:28.871Z,1022.96
2019-01-21T06:50:38.287Z,1022.97
2019-01-21T06:51:47.710Z,1023.04
2019-01-21T06:52:57.377Z,1023.05
2019-01-21T06:54:06.790Z,1023.02
2019-01-21T06:55:16.707Z,1023.01
2019-01-21T06:56:26.127Z,1023.01
2019-01-21T06:57:36.980Z,1022.99
2019-01-21T06:58:46.399Z,1022.97
2019-01-21T06:59:56.065Z,1022.96
2019-01-21T07:01:05.723Z,1022.91
2019-01-21T07:02:15.385Z,1022.95
2019-01-21T07:03:25.045Z,1022.95
2019-01-21T07:04:34.720Z,1022.93
2019-01-21T07:05:44.656Z,1022.97
2019-01-21T07:06:54.322Z,1022.95
2019-01-21T07:08:03.994Z,1022.97
2019-01-21T07:09:13.655Z,1022.95
2019-01-21T07:10:23.324Z,1022.97
2019-01-21T07:11:32.742Z,1022.96
2019-01-21T07:12:42.416Z,1022.97
2019-01-21T07:13:53.679Z,1022.96
2019-01-21T07:15:03.347Z,1022.95
2019-01-21T07:16:13.254Z,1022.93
2019-01-21T07:17:22.918Z,1022.93
2019-01-21T07:18:32.338Z,1022.89
2019-01-21T07:19:41.752Z,1022.9
2019-01-21T07:20:53.633Z,1022.9
2019-01-21T07:22:03.297Z,1022.89
2019-01-21T07:23:12.963Z,1022.91
2019-01-21T07:24:22.883Z,1022.96
2019-01-21T07:25:32.549Z,1023.03
2019-01-21T07:26:41.968Z,1023.04
2019-01-21T07:27:51.385Z,1023.07
2019-01-21T07:29:00.793Z,1023.07
2019-01-21T07:30:10.706Z,1023.03
2019-01-21T07:31:20.381Z,1023.06
2019-01-21T07:32:29.796Z,1023.11
2019-01-21T07:33:39.455Z,1023.12
2019-01-21T07:34:48.618Z,1023.19
2019-01-21T07:35:58.039Z,1023.18
2019-01-21T07:37:07.466Z,1023.17
2019-01-21T07:38:17.134Z,1023.2
2019-01-21T07:39:26.547Z,1023.06
2019-01-21T07:40:39.115Z,1023.03
2019-01-21T07:41:48.283Z,1023.07
2019-01-21T07:42:57.703Z,1023.01
2019-01-21T07:44:08.002Z,1023.05
2019-01-21T07:45:17.675Z,1023.04
2019-01-21T07:46:26.841Z,1023.05
2019-01-21T07:47:36.258Z,1023.02
2019-01-21T07:48:45.675Z,1023.05
2019-01-21T07:49:54.843Z,1023.06
2019-01-21T07:51:04.012Z,1023.07
2019-01-21T07:52:13.931Z,1023.08
2019-01-21T07:53:23.600Z,1023.14
2019-01-21T07:54:33.514Z,1023.16
2019-01-21T07:55:43.182Z,1023.07
2019-01-21T07:56:53.099Z,1023.11
2019-01-21T07:58:02.518Z,1023.11
2019-01-21T07:59:12.430Z,1023.11
2019-01-21T08:00:21.847Z,1023.09
2019-01-21T08:01:31.520Z,1023.08
2019-01-21T08:02:41.186Z,1023.05
2019-01-21T08:03:50.857Z,1023.03
2019-01-21T08:05:00.785Z,1023.02
2019-01-21T08:06:10.463Z,1023.05
2019-01-21T08:07:20.129Z,1023.03
2019-01-21T08:08:29.302Z,1023.05
2019-01-21T08:09:38.728Z,1023.01
2019-01-21T08:10:48.405Z,1023.04
2019-01-21T08:11:58.325Z,1023.04
2019-01-21T08:13:08.245Z,1022.99
2019-01-21T08:14:18.170Z,1022.95
2019-01-21T08:15:27.840Z,1022.89
2019-01-21T08:16:37.506Z,1022.88
2019-01-21T08:17:47.425Z,1022.85
2019-01-21T08:18:57.839Z,1022.84
2019-01-21T08:20:07.509Z,1022.87
2019-01-21T08:21:17.418Z,1022.87
2019-01-21T08:22:27.329Z,1022.89
2019-01-21T08:23:37.001Z,1022.9
2019-01-21T08:24:46.931Z,1022.85
2019-01-21T08:25:56.606Z,1022.88
2019-01-21T08:27:06.526Z,1022.84
2019-01-21T08:28:17.228Z,1022.83
2019-01-21T08:29:27.208Z,1022.81
2019-01-21T08:30:36.871Z,1022.88
2019-01-21T08:31:46.535Z,1022.9
2019-01-21T08:32:56.206Z,1022.94
2019-01-21T08:34:06.122Z,1022.92
2019-01-21T08:35:15.793Z,1022.92
2019-01-21T08:36:25.461Z,1022.91
2019-01-21T08:37:35.380Z,1022.8
2019-01-21T08:38:45.052Z,1022.74
2019-01-21T08:39:54.761Z,1022.71
2019-01-21T08:41:04.179Z,1022.66
2019-01-21T08:42:14.097Z,1022.61
2019-01-21T08:43:23.760Z,1022.63
2019-01-21T08:44:33.199Z,1022.7
2019-01-21T08:45:42.622Z,1022.73
2019-01-21T08:46:52.285Z,1022.69
2019-01-21T08:48:02.201Z,1022.73
2019-01-21T08:49:12.118Z,1022.79
2019-01-21T08:50:21.040Z,1022.78
2019-01-21T08:51:30.704Z,1022.8
2019-01-21T08:52:40.453Z,1022.88
2019-01-21T08:53:50.121Z,1022.88
2019-01-21T08:55:00.038Z,1022.85
2019-01-21T08:56:09.961Z,1022.83
2019-01-21T08:57:19.883Z,1022.85
2019-01-21T08:58:29.557Z,1022.86
2019-01-21T08:59:39.225Z,1022.83
2019-01-21T09:00:49.146Z,1022.75
2019-01-21T09:01:58.816Z,1022.78
2019-01-21T09:03:08.276Z,1022.77
2019-01-21T09:04:22.186Z,1022.79
2019-01-21T09:05:31.858Z,1022.78
2019-01-21T09:06:41.526Z,1022.73
2019-01-21T09:07:50.941Z,1022.72
2019-01-21T09:09:00.869Z,1022.75
2019-01-21T09:10:10.790Z,1022.74
2019-01-21T09:11:20.465Z,1022.78
2019-01-21T09:12:30.386Z,1022.72
2019-01-21T09:13:40.650Z,1022.76
2019-01-21T09:14:50.663Z,1022.73
2019-01-21T09:16:00.359Z,1022.72
2019-01-21T09:17:09.804Z,1022.65
2019-01-21T09:18:19.719Z,1022.65
2019-01-21T09:19:29.391Z,1022.6
2019-01-21T09:20:44.305Z,1022.57
2019-01-21T09:21:53.974Z,1022.54
2019-01-21T09:23:03.396Z,1022.51
2019-01-21T09:24:12.572Z,1022.5
2019-01-21T09:25:23.393Z,1022.46
2019-01-21T09:26:33.060Z,1022.41
2019-01-21T09:27:42.729Z,1022.4
2019-01-21T09:28:52.401Z,1022.47
2019-01-21T09:30:02.071Z,1022.43
2019-01-21T09:31:11.740Z,1022.46
2019-01-21T09:32:21.409Z,1022.46
2019-01-21T09:33:31.083Z,1022.47
2019-01-21T09:34:40.785Z,1022.52
2019-01-21T09:35:50.452Z,1022.52
2019-01-21T09:37:00.375Z,1022.56
2019-01-21T09:38:10.292Z,1022.61
2019-01-21T09:39:19.724Z,1022.62
2019-01-21T09:40:29.146Z,1022.67
2019-01-21T09:41:38.841Z,1022.66
2019-01-21T09:42:48.773Z,1022.62
2019-01-21T09:43:58.438Z,1022.61
2019-01-21T09:45:08.352Z,1022.61
2019-01-21T09:46:18.022Z,1022.59
2019-01-21T09:47:27.700Z,1022.57
2019-01-21T09:48:37.619Z,1022.57
2019-01-21T09:49:47.286Z,1022.52
2019-01-21T09:50:56.958Z,1022.52
2019-01-21T09:52:06.882Z,1022.6
2019-01-21T09:53:16.548Z,1022.59
2019-01-21T09:54:25.971Z,1022.53
2019-01-21T09:55:35.398Z,1022.58
2019-01-21T09:56:45.431Z,1022.56
2019-01-21T09:57:54.871Z,1022.57
2019-01-21T09:59:04.549Z,1022.57
2019-01-21T10:00:14.231Z,1022.53
2019-01-21T10:01:23.906Z,1022.58
2019-01-21T10:02:33.334Z,1022.54
2019-01-21T10:03:42.770Z,1022.5
2019-01-21T10:04:52.455Z,1022.49
2019-01-21T10:06:02.129Z,1022.47
2019-01-21T10:07:11.796Z,1022.52
2019-01-21T10:08:21.236Z,1022.5
2019-01-21T10:09:30.659Z,1022.5
2019-01-21T10:10:40.333Z,1022.5
2019-01-21T10:11:50.250Z,1022.49
2019-01-21T10:13:00.175Z,1022.46
2019-01-21T10:14:10.091Z,1022.45
2019-01-21T10:15:20.013Z,1022.47
2019-01-21T10:16:30.566Z,1022.46
2019-01-21T10:17:39.985Z,1022.43
2019-01-21T10:18:49.164Z,1022.42
2019-01-21T10:19:58.584Z,1022.46
2019-01-21T10:21:07.760Z,1022.39
2019-01-21T10:22:17.678Z,1022.34
2019-01-21T10:23:27.344Z,1022.38
2019-01-21T10:24:36.760Z,1022.33
2019-01-21T10:25:46.680Z,1022.38
2019-01-21T10:26:56.393Z,1022.39
2019-01-21T10:28:06.320Z,1022.34
2019-01-21T10:29:15.986Z,1022.37
2019-01-21T10:30:25.666Z,1022.31
2019-01-21T10:31:35.338Z,1022.34
2019-01-21T10:32:45.013Z,1022.31
2019-01-21T10:33:54.934Z,1022.29
2019-01-21T10:35:04.604Z,1022.29
2019-01-21T10:36:14.024Z,1022.26
2019-01-21T10:37:23.702Z,1022.24
2019-01-21T10:38:33.370Z,1022.12
2019-01-21T10:39:42.793Z,1022.15
2019-01-21T10:40:52.459Z,1022.16
2019-01-21T10:42:01.882Z,1022.14
2019-01-21T10:43:11.062Z,1022.11
2019-01-21T10:44:21.536Z,1022.13
2019-01-21T10:45:30.703Z,1022.12
2019-01-21T10:46:40.129Z,1022.09
2019-01-21T10:47:49.794Z,1022.09
2019-01-21T10:48:59.714Z,1022.09
2019-01-21T10:50:09.636Z,1022.1
2019-01-21T10:51:19.307Z,1022.05
2019-01-21T10:52:28.970Z,1022.05
2019-01-21T10:53:38.392Z,1022.02
2019-01-21T10:54:48.313Z,1022.07
2019-01-21T10:55:58.236Z,1022.07
2019-01-21T10:57:08.166Z,1022.07
2019-01-21T10:58:17.839Z,1022.1
2019-01-21T10:59:27.507Z,1022.03
2019-01-21T11:00:37.181Z,1022
2019-01-21T11:01:46.851Z,1021.97
2019-01-21T11:02:56.776Z,1021.93
2019-01-21T11:04:07.890Z,1021.91
2019-01-21T11:05:17.053Z,1021.91
2019-01-21T11:06:26.735Z,1021.94
2019-01-21T11:07:36.663Z,1021.93
2019-01-21T11:08:46.585Z,1021.86
2019-01-21T11:09:56.249Z,1021.86
2019-01-21T11:11:06.171Z,1021.88
2019-01-21T11:12:16.099Z,1021.89
2019-01-21T11:13:26.019Z,1021.89
2019-01-21T11:14:35.437Z,1021.86
2019-01-21T11:15:45.324Z,1021.86
2019-01-21T11:16:54.736Z,1021.91
2019-01-21T11:18:04.155Z,1021.83
2019-01-21T11:19:14.070Z,1021.73
2019-01-21T11:20:27.377Z,1021.76
2019-01-21T11:21:37.307Z,1021.76
2019-01-21T11:22:46.727Z,1021.75
2019-01-21T11:23:56.148Z,1021.77
2019-01-21T11:25:05.831Z,1021.77
2019-01-21T11:26:15.496Z,1021.78
2019-01-21T11:27:25.174Z,1021.75
2019-01-21T11:28:35.095Z,1021.68
2019-01-21T11:29:45.387Z,1021.63
2019-01-21T11:30:54.810Z,1021.63
2019-01-21T11:32:04.491Z,1021.64
2019-01-21T11:33:14.165Z,1021.63
2019-01-21T11:34:23.354Z,1021.7
2019-01-21T11:35:33.273Z,1021.57
2019-01-21T11:36:42.697Z,1021.57
2019-01-21T11:37:51.873Z,1021.5
2019-01-21T11:39:01.307Z,1021.53
2019-01-21T11:40:11.229Z,1021.51
2019-01-21T11:41:20.904Z,1021.54
2019-01-21T11:42:30.821Z,1021.54
2019-01-21T11:43:40.239Z,1021.51
2019-01-21T11:44:49.912Z,1021.49
2019-01-21T11:45:59.838Z,1021.45
2019-01-21T11:47:09.769Z,1021.42
2019-01-21T11:48:19.698Z,1021.42
2019-01-21T11:49:29.369Z,1021.35
2019-01-21T11:50:39.290Z,1021.29
2019-01-21T11:51:48.711Z,1021.28
2019-01-21T11:52:58.649Z,1021.27
2019-01-21T11:54:08.109Z,1021.24
2019-01-21T11:55:17.278Z,1021.25
2019-01-21T11:56:26.951Z,1021.18
2019-01-21T11:57:36.619Z,1021.14
2019-01-21T11:58:46.292Z,1021.14
2019-01-21T11:59:56.227Z,1021.15
2019-01-21T12:01:05.661Z,1021.12
2019-01-21T12:02:15.333Z,1021.14
2019-01-21T12:03:24.756Z,1021.12
2019-01-21T12:04:34.683Z,1021.16
2019-01-21T12:05:44.358Z,1021.18
2019-01-21T12:06:54.038Z,1021.16
2019-01-21T12:08:03.967Z,1021.17
2019-01-21T12:09:13.638Z,1021.22
2019-01-21T12:10:23.319Z,1021.2
2019-01-21T12:11:33.247Z,1021.18
2019-01-21T12:12:42.916Z,1021.18
2019-01-21T12:13:52.593Z,1021.2
2019-01-21T12:15:02.029Z,1021.21
2019-01-21T12:16:11.447Z,1021.24
2019-01-21T12:17:21.376Z,1021.17
2019-01-21T12:18:30.553Z,1021.22
2019-01-21T12:19:40.474Z,1021.13
2019-01-21T12:20:50.151Z,1021.18
2019-01-21T12:21:59.823Z,1021.24
2019-01-21T12:23:09.509Z,1021.23
2019-01-21T12:24:19.431Z,1021.26
2019-01-21T12:25:29.369Z,1021.29
2019-01-21T12:26:39.041Z,1021.25
2019-01-21T12:27:48.464Z,1021.25
2019-01-21T12:28:57.887Z,1021.21
2019-01-21T12:30:07.560Z,1021.21
2019-01-21T12:31:17.484Z,1021.21
2019-01-21T12:32:27.413Z,1021.18
2019-01-21T12:33:37.091Z,1021.18
2019-01-21T12:34:46.507Z,1021.22
2019-01-21T12:35:56.180Z,1021.23
2019-01-21T12:37:06.111Z,1021.11
2019-01-21T12:38:16.068Z,1021.14
2019-01-21T12:39:25.735Z,1021.13
2019-01-21T12:40:35.153Z,1021.14
2019-01-21T12:41:44.576Z,1021.17
2019-01-21T12:42:53.998Z,1021.14
2019-01-21T12:44:03.439Z,1021.12
2019-01-21T12:45:13.369Z,1021.13
2019-01-21T12:46:23.344Z,1021.13
2019-01-21T12:47:33.261Z,1021.12
2019-01-21T12:48:42.929Z,1021.12
2019-01-21T12:49:52.353Z,1021.13
2019-01-21T12:51:02.282Z,1021.02
2019-01-21T12:52:11.706Z,1021.04
2019-01-21T12:53:21.650Z,1021.01
2019-01-21T12:54:31.071Z,1020.99
2019-01-21T12:55:40.762Z,1020.99
2019-01-21T12:56:50.683Z,1020.97
2019-01-21T12:58:00.430Z,1020.95
2019-01-21T12:59:15.816Z,1020.95
2019-01-21T13:00:25.766Z,1020.95
2019-01-21T13:01:35.437Z,1020.93
2019-01-21T13:02:44.618Z,1020.92
2019-01-21T13:03:54.048Z,1020.86
2019-01-21T13:05:03.472Z,1020.87
2019-01-21T13:06:13.405Z,1020.84
2019-01-21T13:07:22.828Z,1020.83
2019-01-21T13:08:32.762Z,1020.84
2019-01-21T13:09:42.200Z,1020.81
2019-01-21T13:10:52.127Z,1020.79
2019-01-21T13:12:02.143Z,1020.84
2019-01-21T13:13:11.569Z,1020.83
2019-01-21T13:14:21.242Z,1020.81
2019-01-21T13:15:30.416Z,1020.79
2019-01-21T13:16:39.839Z,1020.74
2019-01-21T13:17:49.266Z,1020.72
2019-01-21T13:18:58.935Z,1020.79
2019-01-21T13:20:08.602Z,1020.78
2019-01-21T13:21:18.026Z,1020.79
2019-01-21T13:22:27.458Z,1020.75
2019-01-21T13:23:36.904Z,1020.72
2019-01-21T13:24:46.092Z,1020.72
2019-01-21T13:25:56.245Z,1020.76
2019-01-21T13:27:05.774Z,1020.66
2019-01-21T13:28:15.786Z,1020.66
2019-01-21T13:29:25.223Z,1020.57
2019-01-21T13:30:34.916Z,1020.62
2019-01-21T13:31:44.846Z,1020.61
2019-01-21T13:32:54.527Z,1020.55
2019-01-21T13:34:04.459Z,1020.54
2019-01-21T13:35:13.886Z,1020.48
2019-01-21T13:36:23.558Z,1020.46
2019-01-21T13:37:33.236Z,1020.44
2019-01-21T13:38:43.166Z,1020.4
2019-01-21T13:39:52.849Z,1020.43
2019-01-21T13:41:02.783Z,1020.32
2019-01-21T13:42:12.506Z,1020.35
2019-01-21T13:43:22.196Z,1020.26
2019-01-21T13:44:31.376Z,1020.27
2019-01-21T13:45:40.799Z,1020.24
2019-01-21T13:46:50.222Z,1020.23
2019-01-21T13:47:59.890Z,1020.2
2019-01-21T13:49:09.820Z,1020.17
2019-01-21T13:50:19.248Z,1020.19
2019-01-21T13:51:28.924Z,1020.14
2019-01-21T13:52:38.600Z,1020.16
2019-01-21T13:53:48.525Z,1020.12
2019-01-21T13:54:58.205Z,1020.16
2019-01-21T13:56:09.154Z,1020.17
2019-01-21T13:57:19.084Z,1020.16
2019-01-21T13:58:28.503Z,1020.1
2019-01-21T13:59:37.931Z,1020.04
2019-01-21T14:00:47.608Z,1020.1
2019-01-21T14:01:58.178Z,1020.11
2019-01-21T14:03:07.606Z,1020.06
2019-01-21T14:04:17.285Z,1020.05
2019-01-21T14:05:30.961Z,1020.02
2019-01-21T14:06:40.324Z,1019.98